sensor_id;sensor_type;location;lat;lon;timestamp;P1;durP1;ratioP1;P2;durP2;ratioP2
77938;SDS011;67136;47.546;21.630;2023-04-01T00:02:10;7.30;;;2.72;;
77938;SDS011;67136;47.546;21.630;2023-04-01T00:05:13;12.52;;;4.00;;
77938;SDS011;67136;47.546;21.630;2023-04-01T00:08:15;6.63;;;3.20;;
77938;SDS011;67136;47.546;21.630;2023-04-01T00:11:19;5.30;;;3.67;;
77938;SDS011;67136;47.546;21.630;2023-04-01T00:14:21;11.85;;;4.20;;
77938;SDS011;67136;47.546;21.630;2023-04-01T00:17:24;10.00;;;4.30;;
77938;SDS011;67136;47.546;21.630;2023-04-01T00:20:27;9.77;;;5.40;;
77938;SDS011;67136;47.546;21.630;2023-04-01T00:23:30;10.60;;;5.30;;
77938;SDS011;67136;47.546;21.630;2023-04-01T00:26:33;9.82;;;4.75;;
77938;SDS011;67136;47.546;21.630;2023-04-01T00:29:35;10.80;;;5.82;;
77938;SDS011;67136;47.546;21.630;2023-04-01T00:32:38;12.27;;;5.03;;
77938;SDS011;67136;47.546;21.630;2023-04-01T00:35:41;9.52;;;5.07;;
77938;SDS011;67136;47.546;21.630;2023-04-01T00:38:44;12.57;;;5.37;;
77938;SDS011;67136;47.546;21.630;2023-04-01T00:41:48;11.43;;;5.70;;
77938;SDS011;67136;47.546;21.630;2023-04-01T00:44:51;8.25;;;5.55;;
77938;SDS011;67136;47.546;21.630;2023-04-01T00:47:56;15.27;;;5.93;;
77938;SDS011;67136;47.546;21.630;2023-04-01T00:51:09;13.57;;;5.40;;
77938;SDS011;67136;47.546;21.630;2023-04-01T00:54:14;12.33;;;5.67;;
77938;SDS011;67136;47.546;21.630;2023-04-01T00:57:21;12.13;;;5.97;;
77938;SDS011;67136;47.546;21.630;2023-04-01T01:00:34;12.98;;;5.53;;
77938;SDS011;67136;47.546;21.630;2023-04-01T01:03:38;11.07;;;5.68;;
77938;SDS011;67136;47.546;21.630;2023-04-01T01:06:46;10.88;;;5.68;;
77938;SDS011;67136;47.546;21.630;2023-04-01T01:10:02;10.63;;;5.07;;
77938;SDS011;67136;47.546;21.630;2023-04-01T01:13:25;11.15;;;5.57;;
77938;SDS011;67136;47.546;21.630;2023-04-01T01:16:40;12.00;;;5.50;;
77938;SDS011;67136;47.546;21.630;2023-04-01T01:36:09;6.65;;;4.60;;
77938;SDS011;67136;47.546;21.630;2023-04-01T01:39:16;10.82;;;5.15;;
77938;SDS011;67136;47.546;21.630;2023-04-01T01:42:20;8.53;;;5.10;;
77938;SDS011;67136;47.546;21.630;2023-04-01T01:45:27;8.88;;;4.68;;
77938;SDS011;67136;47.546;21.630;2023-04-01T01:48:31;7.32;;;4.43;;
77938;SDS011;67136;47.546;21.630;2023-04-01T01:51:37;11.60;;;4.30;;
77938;SDS011;67136;47.546;21.630;2023-04-01T01:55:00;9.02;;;4.03;;
77938;SDS011;67136;47.546;21.630;2023-04-01T01:58:05;5.33;;;3.60;;
77938;SDS011;67136;47.546;21.630;2023-04-01T02:01:18;6.95;;;3.87;;
77938;SDS011;67136;47.546;21.630;2023-04-01T02:04:31;8.02;;;4.20;;
77938;SDS011;67136;47.546;21.630;2023-04-01T02:07:34;7.53;;;3.78;;
77938;SDS011;67136;47.546;21.630;2023-04-01T02:10:41;9.13;;;4.68;;
77938;SDS011;67136;47.546;21.630;2023-04-01T02:17:22;6.87;;;4.10;;
77938;SDS011;67136;47.546;21.630;2023-04-01T02:20:28;6.45;;;4.00;;
77938;SDS011;67136;47.546;21.630;2023-04-01T02:23:35;8.48;;;4.10;;
77938;SDS011;67136;47.546;21.630;2023-04-01T02:26:40;6.07;;;4.20;;
77938;SDS011;67136;47.546;21.630;2023-04-01T02:29:43;11.73;;;4.60;;
77938;SDS011;67136;47.546;21.630;2023-04-01T02:32:46;9.73;;;4.30;;
77938;SDS011;67136;47.546;21.630;2023-04-01T02:35:49;7.15;;;3.92;;
77938;SDS011;67136;47.546;21.630;2023-04-01T02:38:52;6.65;;;4.22;;
77938;SDS011;67136;47.546;21.630;2023-04-01T02:41:58;6.35;;;4.32;;
77938;SDS011;67136;47.546;21.630;2023-04-01T02:45:03;12.40;;;3.77;;
77938;SDS011;67136;47.546;21.630;2023-04-01T02:48:07;10.90;;;3.62;;
77938;SDS011;67136;47.546;21.630;2023-04-01T02:51:09;7.10;;;3.30;;
77938;SDS011;67136;47.546;21.630;2023-04-01T02:54:12;5.55;;;3.55;;
77938;SDS011;67136;47.546;21.630;2023-04-01T02:57:15;6.57;;;3.80;;
77938;SDS011;67136;47.546;21.630;2023-04-01T03:00:18;8.10;;;3.40;;
77938;SDS011;67136;47.546;21.630;2023-04-01T03:03:21;5.87;;;3.50;;
77938;SDS011;67136;47.546;21.630;2023-04-01T03:06:23;7.95;;;4.00;;
77938;SDS011;67136;47.546;21.630;2023-04-01T03:09:26;6.62;;;3.42;;
77938;SDS011;67136;47.546;21.630;2023-04-01T03:12:29;7.45;;;3.30;;
77938;SDS011;67136;47.546;21.630;2023-04-01T03:15:32;7.20;;;3.70;;
77938;SDS011;67136;47.546;21.630;2023-04-01T03:18:35;4.53;;;2.97;;
77938;SDS011;67136;47.546;21.630;2023-04-01T03:21:37;5.60;;;2.95;;
77938;SDS011;67136;47.546;21.630;2023-04-01T03:24:40;5.87;;;3.00;;
77938;SDS011;67136;47.546;21.630;2023-04-01T03:27:42;4.57;;;3.22;;
77938;SDS011;67136;47.546;21.630;2023-04-01T03:30:45;5.70;;;3.13;;
77938;SDS011;67136;47.546;21.630;2023-04-01T03:33:48;7.07;;;2.75;;
77938;SDS011;67136;47.546;21.630;2023-04-01T03:36:51;6.20;;;3.22;;
77938;SDS011;67136;47.546;21.630;2023-04-01T03:39:54;7.30;;;2.95;;
77938;SDS011;67136;47.546;21.630;2023-04-01T03:42:57;7.65;;;3.37;;
77938;SDS011;67136;47.546;21.630;2023-04-01T03:46:00;5.73;;;3.13;;
77938;SDS011;67136;47.546;21.630;2023-04-01T03:49:02;4.82;;;3.37;;
77938;SDS011;67136;47.546;21.630;2023-04-01T03:52:13;5.55;;;3.20;;
77938;SDS011;67136;47.546;21.630;2023-04-01T03:55:16;6.03;;;3.20;;
77938;SDS011;67136;47.546;21.630;2023-04-01T03:58:22;6.15;;;3.28;;
77938;SDS011;67136;47.546;21.630;2023-04-01T04:01:24;6.60;;;3.50;;
77938;SDS011;67136;47.546;21.630;2023-04-01T04:04:28;6.93;;;3.80;;
77938;SDS011;67136;47.546;21.630;2023-04-01T04:07:31;6.28;;;3.65;;
77938;SDS011;67136;47.546;21.630;2023-04-01T04:10:33;6.95;;;3.53;;
77938;SDS011;67136;47.546;21.630;2023-04-01T04:13:37;5.85;;;3.70;;
77938;SDS011;67136;47.546;21.630;2023-04-01T04:16:40;5.73;;;3.50;;
77938;SDS011;67136;47.546;21.630;2023-04-01T04:19:42;5.68;;;3.25;;
77938;SDS011;67136;47.546;21.630;2023-04-01T04:22:46;8.00;;;3.60;;
77938;SDS011;67136;47.546;21.630;2023-04-01T04:25:53;4.75;;;3.00;;
77938;SDS011;67136;47.546;21.630;2023-04-01T04:29:00;4.20;;;2.65;;
77938;SDS011;67136;47.546;21.630;2023-04-01T04:32:03;4.60;;;2.83;;
77938;SDS011;67136;47.546;21.630;2023-04-01T04:35:06;7.00;;;3.10;;
77938;SDS011;67136;47.546;21.630;2023-04-01T04:38:09;5.78;;;2.87;;
77938;SDS011;67136;47.546;21.630;2023-04-01T04:41:12;3.40;;;2.80;;
77938;SDS011;67136;47.546;21.630;2023-04-01T04:44:16;4.65;;;2.85;;
77938;SDS011;67136;47.546;21.630;2023-04-01T04:47:19;4.30;;;2.77;;
77938;SDS011;67136;47.546;21.630;2023-04-01T04:50:22;3.28;;;2.30;;
77938;SDS011;67136;47.546;21.630;2023-04-01T04:53:26;3.83;;;2.72;;
77938;SDS011;67136;47.546;21.630;2023-04-01T04:56:28;4.62;;;2.53;;
77938;SDS011;67136;47.546;21.630;2023-04-01T04:59:33;3.97;;;2.10;;
77938;SDS011;67136;47.546;21.630;2023-04-01T05:02:36;4.40;;;2.60;;
77938;SDS011;67136;47.546;21.630;2023-04-01T05:05:39;6.12;;;2.58;;
77938;SDS011;67136;47.546;21.630;2023-04-01T05:08:42;4.87;;;2.78;;
77938;SDS011;67136;47.546;21.630;2023-04-01T05:11:46;7.47;;;2.62;;
77938;SDS011;67136;47.546;21.630;2023-04-01T05:14:49;6.00;;;3.22;;
77938;SDS011;67136;47.546;21.630;2023-04-01T05:17:51;5.60;;;2.90;;
77938;SDS011;67136;47.546;21.630;2023-04-01T05:20:54;5.78;;;2.70;;
77938;SDS011;67136;47.546;21.630;2023-04-01T05:23:57;5.85;;;2.70;;
77938;SDS011;67136;47.546;21.630;2023-04-01T05:27:00;5.35;;;2.62;;
77938;SDS011;67136;47.546;21.630;2023-04-01T05:30:04;6.80;;;3.10;;
77938;SDS011;67136;47.546;21.630;2023-04-01T05:33:09;9.00;;;3.63;;
77938;SDS011;67136;47.546;21.630;2023-04-01T05:36:15;6.37;;;3.58;;
77938;SDS011;67136;47.546;21.630;2023-04-01T05:39:18;6.90;;;3.80;;
77938;SDS011;67136;47.546;21.630;2023-04-01T05:42:22;5.03;;;3.53;;
77938;SDS011;67136;47.546;21.630;2023-04-01T05:45:24;7.55;;;3.40;;
77938;SDS011;67136;47.546;21.630;2023-04-01T05:48:33;9.43;;;4.20;;
77938;SDS011;67136;47.546;21.630;2023-04-01T05:51:37;6.10;;;3.17;;
77938;SDS011;67136;47.546;21.630;2023-04-01T05:54:40;9.25;;;3.60;;
77938;SDS011;67136;47.546;21.630;2023-04-01T05:57:44;5.10;;;2.97;;
77938;SDS011;67136;47.546;21.630;2023-04-01T06:00:47;7.12;;;3.10;;
77938;SDS011;67136;47.546;21.630;2023-04-01T06:04:03;7.60;;;2.90;;
77938;SDS011;67136;47.546;21.630;2023-04-01T06:07:16;4.97;;;3.17;;
77938;SDS011;67136;47.546;21.630;2023-04-01T06:10:21;7.30;;;3.30;;
77938;SDS011;67136;47.546;21.630;2023-04-01T06:17:19;6.78;;;2.87;;
77938;SDS011;67136;47.546;21.630;2023-04-01T06:20:58;4.53;;;3.00;;
77938;SDS011;67136;47.546;21.630;2023-04-01T06:24:27;6.50;;;2.80;;
77938;SDS011;67136;47.546;21.630;2023-04-01T06:30:50;4.78;;;2.50;;
77938;SDS011;67136;47.546;21.630;2023-04-01T06:34:35;4.55;;;2.72;;
77938;SDS011;67136;47.546;21.630;2023-04-01T06:48:17;5.07;;;2.35;;
77938;SDS011;67136;47.546;21.630;2023-04-01T07:01:49;5.28;;;2.08;;
77938;SDS011;67136;47.546;21.630;2023-04-01T07:05:14;3.47;;;2.42;;
77938;SDS011;67136;47.546;21.630;2023-04-01T07:08:20;3.42;;;1.85;;
77938;SDS011;67136;47.546;21.630;2023-04-01T07:11:31;3.13;;;1.80;;
77938;SDS011;67136;47.546;21.630;2023-04-01T07:14:40;3.78;;;2.22;;
77938;SDS011;67136;47.546;21.630;2023-04-01T07:17:45;3.62;;;2.20;;
77938;SDS011;67136;47.546;21.630;2023-04-01T07:20:53;4.47;;;2.03;;
77938;SDS011;67136;47.546;21.630;2023-04-01T07:23:59;3.60;;;2.03;;
77938;SDS011;67136;47.546;21.630;2023-04-01T07:27:11;5.20;;;2.20;;
77938;SDS011;67136;47.546;21.630;2023-04-01T07:30:16;4.22;;;1.80;;
77938;SDS011;67136;47.546;21.630;2023-04-01T07:33:28;4.53;;;1.92;;
77938;SDS011;67136;47.546;21.630;2023-04-01T07:36:39;3.37;;;2.00;;
77938;SDS011;67136;47.546;21.630;2023-04-01T07:43:07;4.67;;;2.23;;
77938;SDS011;67136;47.546;21.630;2023-04-01T07:56:42;4.15;;;2.22;;
77938;SDS011;67136;47.546;21.630;2023-04-01T07:59:56;2.97;;;1.80;;
77938;SDS011;67136;47.546;21.630;2023-04-01T08:06:36;4.18;;;2.12;;
77938;SDS011;67136;47.546;21.630;2023-04-01T08:09:50;5.57;;;2.00;;
77938;SDS011;67136;47.546;21.630;2023-04-01T08:22:41;3.25;;;1.87;;
77938;SDS011;67136;47.546;21.630;2023-04-01T08:26:05;3.90;;;2.10;;
77938;SDS011;67136;47.546;21.630;2023-04-01T08:29:18;5.93;;;2.10;;
77938;SDS011;67136;47.546;21.630;2023-04-01T08:32:37;3.60;;;2.00;;
77938;SDS011;67136;47.546;21.630;2023-04-01T08:35:57;4.53;;;2.30;;
77938;SDS011;67136;47.546;21.630;2023-04-01T08:39:23;5.15;;;2.70;;
77938;SDS011;67136;47.546;21.630;2023-04-01T08:42:46;3.97;;;1.98;;
77938;SDS011;67136;47.546;21.630;2023-04-01T08:52:36;3.30;;;2.00;;
77938;SDS011;67136;47.546;21.630;2023-04-01T08:55:51;4.68;;;2.25;;
77938;SDS011;67136;47.546;21.630;2023-04-01T08:59:09;4.57;;;2.30;;
77938;SDS011;67136;47.546;21.630;2023-04-01T09:02:40;4.22;;;2.30;;
77938;SDS011;67136;47.546;21.630;2023-04-01T09:26:04;3.33;;;2.33;;
77938;SDS011;67136;47.546;21.630;2023-04-01T09:46:11;4.35;;;2.25;;
77938;SDS011;67136;47.546;21.630;2023-04-01T09:52:52;6.53;;;2.58;;
77938;SDS011;67136;47.546;21.630;2023-04-01T10:08:50;3.42;;;2.40;;
77938;SDS011;67136;47.546;21.630;2023-04-01T10:39:34;3.55;;;2.15;;
77938;SDS011;67136;47.546;21.630;2023-04-01T10:46:29;3.50;;;2.23;;
77938;SDS011;67136;47.546;21.630;2023-04-01T10:50:05;3.60;;;2.20;;
77938;SDS011;67136;47.546;21.630;2023-04-01T10:53:49;5.82;;;2.30;;
77938;SDS011;67136;47.546;21.630;2023-04-01T11:28:55;2.62;;;2.25;;
77938;SDS011;67136;47.546;21.630;2023-04-01T11:32:25;2.97;;;2.20;;
77938;SDS011;67136;47.546;21.630;2023-04-01T11:47:03;3.22;;;1.60;;
77938;SDS011;67136;47.546;21.630;2023-04-01T11:50:20;2.58;;;1.50;;
77938;SDS011;67136;47.546;21.630;2023-04-01T12:04:27;3.30;;;1.60;;
77938;SDS011;67136;47.546;21.630;2023-04-01T12:17:42;1.55;;;1.10;;
77938;SDS011;67136;47.546;21.630;2023-04-01T12:37:18;1.75;;;1.20;;
77938;SDS011;67136;47.546;21.630;2023-04-01T12:50:31;2.67;;;1.25;;
77938;SDS011;67136;47.546;21.630;2023-04-01T13:04:05;2.17;;;0.97;;
77938;SDS011;67136;47.546;21.630;2023-04-01T13:20:43;4.67;;;1.33;;
77938;SDS011;67136;47.546;21.630;2023-04-01T13:34:27;2.33;;;1.40;;
77938;SDS011;67136;47.546;21.630;2023-04-01T13:41:48;2.60;;;1.33;;
77938;SDS011;67136;47.546;21.630;2023-04-01T13:45:09;4.45;;;1.20;;
77938;SDS011;67136;47.546;21.630;2023-04-01T13:51:52;1.70;;;1.00;;
77938;SDS011;67136;47.546;21.630;2023-04-01T14:05:26;3.25;;;1.40;;
77938;SDS011;67136;47.546;21.630;2023-04-01T14:12:34;2.90;;;1.20;;
77938;SDS011;67136;47.546;21.630;2023-04-01T14:25:23;2.00;;;1.30;;
77938;SDS011;67136;47.546;21.630;2023-04-01T14:28:32;2.93;;;1.67;;
77938;SDS011;67136;47.546;21.630;2023-04-01T14:35:16;3.53;;;1.42;;
77938;SDS011;67136;47.546;21.630;2023-04-01T14:38:33;2.97;;;1.42;;
77938;SDS011;67136;47.546;21.630;2023-04-01T14:41:47;3.72;;;1.20;;
77938;SDS011;67136;47.546;21.630;2023-04-01T14:48:36;3.78;;;1.40;;
77938;SDS011;67136;47.546;21.630;2023-04-01T14:51:41;1.73;;;1.10;;
77938;SDS011;67136;47.546;21.630;2023-04-01T14:54:46;3.08;;;1.20;;
77938;SDS011;67136;47.546;21.630;2023-04-01T15:08:31;4.35;;;1.20;;
77938;SDS011;67136;47.546;21.630;2023-04-01T15:38:48;2.65;;;0.80;;
77938;SDS011;67136;47.546;21.630;2023-04-01T16:15:21;4.50;;;1.58;;
77938;SDS011;67136;47.546;21.630;2023-04-01T16:22:02;3.33;;;1.50;;
77938;SDS011;67136;47.546;21.630;2023-04-01T16:28:31;2.92;;;1.40;;
77938;SDS011;67136;47.546;21.630;2023-04-01T16:41:29;4.47;;;2.13;;
77938;SDS011;67136;47.546;21.630;2023-04-01T16:44:54;3.50;;;2.37;;
77938;SDS011;67136;47.546;21.630;2023-04-01T16:48:07;3.45;;;1.50;;
77938;SDS011;67136;47.546;21.630;2023-04-01T16:51:15;2.42;;;1.45;;
77938;SDS011;67136;47.546;21.630;2023-04-01T16:58:00;2.53;;;1.30;;
77938;SDS011;67136;47.546;21.630;2023-04-01T17:01:07;2.62;;;1.00;;
77938;SDS011;67136;47.546;21.630;2023-04-01T17:04:27;2.72;;;1.40;;
77938;SDS011;67136;47.546;21.630;2023-04-01T17:20:42;2.35;;;1.05;;
77938;SDS011;67136;47.546;21.630;2023-04-01T17:23:53;2.47;;;1.12;;
77938;SDS011;67136;47.546;21.630;2023-04-01T17:27:13;2.20;;;1.33;;
77938;SDS011;67136;47.546;21.630;2023-04-01T17:33:44;3.55;;;1.50;;
77938;SDS011;67136;47.546;21.630;2023-04-01T17:54:17;4.37;;;2.30;;
77938;SDS011;67136;47.546;21.630;2023-04-01T17:57:45;3.95;;;2.10;;
77938;SDS011;67136;47.546;21.630;2023-04-01T18:07:50;4.12;;;2.12;;
77938;SDS011;67136;47.546;21.630;2023-04-01T18:21:32;4.03;;;2.10;;
77938;SDS011;67136;47.546;21.630;2023-04-01T18:24:45;5.07;;;1.83;;
77938;SDS011;67136;47.546;21.630;2023-04-01T18:31:11;3.67;;;1.70;;
77938;SDS011;67136;47.546;21.630;2023-04-01T18:38:16;3.73;;;1.80;;
77938;SDS011;67136;47.546;21.630;2023-04-01T18:47:59;6.87;;;3.72;;
77938;SDS011;67136;47.546;21.630;2023-04-01T18:51:17;6.37;;;2.60;;
77938;SDS011;67136;47.546;21.630;2023-04-01T18:57:47;9.32;;;3.22;;
77938;SDS011;67136;47.546;21.630;2023-04-01T19:01:01;5.57;;;3.10;;
77938;SDS011;67136;47.546;21.630;2023-04-01T19:27:26;10.27;;;6.20;;
77938;SDS011;67136;47.546;21.630;2023-04-01T19:30:38;12.07;;;7.25;;
77938;SDS011;67136;47.546;21.630;2023-04-01T19:37:05;17.45;;;8.45;;
77938;SDS011;67136;47.546;21.630;2023-04-01T19:46:58;11.98;;;7.20;;
77938;SDS011;67136;47.546;21.630;2023-04-01T19:53:34;15.27;;;7.53;;
77938;SDS011;67136;47.546;21.630;2023-04-01T20:13:06;12.13;;;7.65;;
77938;SDS011;67136;47.546;21.630;2023-04-01T20:16:18;13.10;;;7.77;;
77938;SDS011;67136;47.546;21.630;2023-04-01T20:19:37;16.37;;;8.07;;
77938;SDS011;67136;47.546;21.630;2023-04-01T20:25:52;14.85;;;8.52;;
77938;SDS011;67136;47.546;21.630;2023-04-01T20:29:07;18.60;;;9.20;;
77938;SDS011;67136;47.546;21.630;2023-04-01T20:49:40;15.67;;;7.73;;
77938;SDS011;67136;47.546;21.630;2023-04-01T20:52:47;15.93;;;7.80;;
77938;SDS011;67136;47.546;21.630;2023-04-01T21:13:25;14.00;;;7.65;;
77938;SDS011;67136;47.546;21.630;2023-04-01T21:16:56;14.32;;;7.15;;
77938;SDS011;67136;47.546;21.630;2023-04-01T21:37:41;16.02;;;7.37;;
77938;SDS011;67136;47.546;21.630;2023-04-01T21:41:00;13.33;;;7.00;;
77938;SDS011;67136;47.546;21.630;2023-04-01T21:44:09;13.18;;;7.30;;
77938;SDS011;67136;47.546;21.630;2023-04-01T21:54:14;11.70;;;6.85;;
77938;SDS011;67136;47.546;21.630;2023-04-01T22:15:04;11.47;;;7.17;;
77938;SDS011;67136;47.546;21.630;2023-04-01T22:18:21;10.25;;;6.47;;
77938;SDS011;67136;47.546;21.630;2023-04-01T22:25:11;13.57;;;7.03;;
77938;SDS011;67136;47.546;21.630;2023-04-01T22:28:22;14.15;;;7.10;;
77938;SDS011;67136;47.546;21.630;2023-04-01T22:31:36;10.47;;;7.07;;
77938;SDS011;67136;47.546;21.630;2023-04-01T22:34:55;11.75;;;6.60;;
77938;SDS011;67136;47.546;21.630;2023-04-01T22:51:48;16.05;;;6.28;;
77938;SDS011;67136;47.546;21.630;2023-04-01T22:54:58;12.85;;;6.85;;
77938;SDS011;67136;47.546;21.630;2023-04-01T22:58:18;11.15;;;6.45;;
77938;SDS011;67136;47.546;21.630;2023-04-01T23:01:30;9.95;;;6.37;;
77938;SDS011;67136;47.546;21.630;2023-04-01T23:04:39;9.93;;;5.83;;
77938;SDS011;67136;47.546;21.630;2023-04-01T23:11:33;10.32;;;5.60;;
77938;SDS011;67136;47.546;21.630;2023-04-01T23:14:58;10.23;;;5.30;;
77938;SDS011;67136;47.546;21.630;2023-04-01T23:18:18;9.38;;;6.07;;
77938;SDS011;67136;47.546;21.630;2023-04-01T23:34:36;9.45;;;5.50;;
77938;SDS011;67136;47.546;21.630;2023-04-01T23:37:39;9.53;;;5.47;;
77938;SDS011;67136;47.546;21.630;2023-04-01T23:40:42;8.82;;;5.00;;
77938;SDS011;67136;47.546;21.630;2023-04-01T23:43:45;16.45;;;5.40;;
77938;SDS011;67136;47.546;21.630;2023-04-01T23:46:56;9.95;;;5.00;;
77938;SDS011;67136;47.546;21.630;2023-04-01T23:50:02;7.90;;;4.53;;
77938;SDS011;67136;47.546;21.630;2023-04-01T23:53:23;6.43;;;4.13;;
77938;SDS011;67136;47.546;21.630;2023-04-01T23:56:51;8.02;;;4.50;;
